Forside
METAR-TAF:

METAR-TAF

Lufthavne :

Emerald, Australien

Breddekreds: 23-34-03S, længdekreds: 148-10-45E, højde: 190 m

Aktuelle vejr

Denne rapport blev lavet for 48 minutter siden, kl. 02:00 UTC
Vind 8 kt fra sydøst
Temperatur 36°C
Fugtighed 27%
Tryk 1006 hPa
Sigt 10 km eller mere

METAR: YEML 210200Z AUTO 13008KT 9999 // NCD 36/14 Q1006

Tid: 12:48 (02:48 UTC)


TAF: fraværende

Vejrobservationer og prognoser fra mere end 4000 lufthavne (METAR og TAF).

De gule og røde prikker repræsenterer de meteorologiske stationer.

Flyt musen over at se navnet på stationen.

Så klik over at se vejr observationer og prognoser.

At skifte det kort: Klik på de grønne knapper med et sort kors for at zoome ind; på den grønne knap med en bindestreg for at zoome ud; eller på de grønne pile for tilstødende kort.


METAR-TAF: